Time;durP1;ratioP1;P1;durP2;ratioP2;P2;SDS_P1;SDS_P2;PMS_P1;PMS_P2;Temp;Humidity;BMP_temperature;BMP_pressure;BME280_temperature;BME280_humidity;BME280_pressure;Samples;Min_cycle;Max_cycle;Signal;HPM_P1;HPM_P2
2021/12/29 00:00:49;;;;;;;358.98;164.77;;;9.60;99.90;;;9.39;100.00;99277.22;5013287;28;20584;-82
2021/12/29 00:03:17;;;;;;;52.10;48.75;;;;;;;9.49;100.00;99291.25;5030976;28;20237;-82
2021/12/29 00:05:45;;;;;;;301.92;175.80;;;;;;;9.40;100.00;99267.53;5013209;28;20202;-82
2021/12/29 00:08:13;;;;;;;290.58;115.65;;;;;;;9.41;100.00;99266.66;5022970;28;20230;-82
2021/12/29 00:10:42;;;;;;;0.10;0.10;;;;;;;9.47;100.00;99279.81;5004195;28;20217;-83
2021/12/29 00:13:10;;;;;;;11.35;2.67;;;;;;;9.38;100.00;99288.66;5043167;28;20228;-83
2021/12/29 00:15:39;;;;;;;12.50;2.65;;;;;;;9.34;100.00;99262.28;5042895;28;20203;-82
2021/12/29 00:18:07;;;;;;;206.30;177.63;;;;;;;9.30;100.00;99267.56;5025854;28;20205;-81
2021/12/29 00:20:35;;;;;;;0.00;0.00;;;;;;;9.30;100.00;99280.78;5010469;28;20663;-82
2021/12/29 00:23:07;;;;;;;0.00;0.00;;;9.40;99.90;;;9.31;100.00;99279.00;5024123;28;20695;-82
2021/12/29 00:25:40;;;;;;;310.27;139.63;;;;;;;9.36;100.00;99284.25;5052144;28;20476;-82
2021/12/29 00:28:08;;;;;;;359.67;160.40;;;;;;;9.37;100.00;99291.28;5041874;28;20226;-80
2021/12/29 00:30:36;;;;;;;191.57;81.82;;;;;;;9.26;100.00;99286.94;5026340;28;20225;-80
2021/12/29 00:33:23;;;;;;;6.93;3.30;;;;;;;9.30;100.00;99299.22;5062927;28;20225;-82
2021/12/29 00:36:11;;;;;;;6.88;1.50;;;;;;;9.33;100.00;99310.66;5029175;28;20234;-82
2021/12/29 00:38:39;;;;;;;4.28;1.40;;;;;;;9.26;100.00;99288.69;5055991;28;20210;-82
2021/12/29 00:41:26;;;;;;;14.18;10.52;;;;;;;9.33;100.00;99305.38;5051000;28;20237;-82
2021/12/29 00:44:00;;;;;;;362.17;164.45;;;;;;;9.23;100.00;99304.53;5032140;28;20218;-82
2021/12/29 00:46:54;;;;;;;2.30;0.88;;;;;;;9.23;100.00;99315.09;5029227;28;20222;-81
2021/12/29 00:49:29;;;;;;;1.98;0.80;;;9.30;99.90;;;9.22;100.00;99326.53;5035128;28;20221;-82
2021/12/29 00:51:58;;;;;;;3.15;1.35;;;;;;;9.32;100.00;99340.56;5046606;28;20211;-82
2021/12/29 00:54:27;;;;;;;6.00;1.85;;;;;;;9.22;100.00;99337.06;5011833;28;20222;-82
2021/12/29 00:56:55;;;;;;;6.05;1.27;;;;;;;9.20;100.00;99344.13;5013137;28;20203;-82
2021/12/29 00:59:23;;;;;;;5.50;1.38;;;;;;;9.22;100.00;99355.53;5017566;28;20210;-80
2021/12/29 01:01:52;;;;;;;8.45;2.45;;;;;;;9.25;100.00;99366.09;5016023;28;20291;-82
2021/12/29 01:04:21;;;;;;;4.13;1.00;;;9.30;99.90;;;9.23;100.00;99373.13;5026297;28;20234;-82
2021/12/29 01:06:50;;;;;;;223.63;205.43;;;;;;;9.24;100.00;99370.47;4998639;28;20233;-81
2021/12/29 01:09:18;;;;;;;1.65;0.90;;;;;;;9.29;100.00;99391.56;5032971;28;20206;-82
2021/12/29 01:11:46;;;;;;;257.23;182.10;;;;;;;9.37;100.00;99397.72;5015378;28;20210;-82
2021/12/29 01:14:21;;;;;;;235.88;172.15;;;;;;;9.45;100.00;99393.28;5000930;28;20222;-82
2021/12/29 01:16:52;;;;;;;244.18;202.82;;;9.50;99.90;;;9.49;100.00;99383.59;5033734;28;20218;-81
2021/12/29 01:19:27;;;;;;;223.50;202.90;;;9.50;99.90;;;9.53;100.00;99380.06;5030493;28;20214;-83
2021/12/29 01:21:58;;;;;;;236.75;196.75;;;9.50;99.90;;;9.46;100.00;99373.06;5002612;28;20213;-81
2021/12/29 01:24:28;;;;;;;157.85;146.50;;;9.50;99.90;;;9.38;100.00;99373.09;5015795;28;20222;-82
2021/12/29 01:26:57;;;;;;;201.80;182.27;;;;;;;9.40;100.00;99388.91;5017632;28;20210;-82
2021/12/29 01:29:29;;;;;;;4.53;1.25;;;;;;;9.49;100.00;99412.63;5015723;28;20211;-82
2021/12/29 01:31:59;;;;;;;10.38;1.88;;;9.50;99.90;;;9.44;100.00;99420.56;5027225;28;20219;-80
2021/12/29 01:34:27;;;;;;;4.03;0.85;;;9.50;99.90;;;9.45;100.00;99426.72;5034009;28;20233;-82
2021/12/29 01:36:55;;;;;;;8.23;1.98;;;;;;;9.45;100.00;99427.59;5032873;28;20211;-82
2021/12/29 01:39:24;;;;;;;185.25;170.68;;;;;;;9.33;100.00;99419.69;5012880;28;20206;-82
2021/12/29 01:41:55;;;;;;;114.38;106.30;;;9.50;99.90;;;9.29;100.00;99428.50;5032658;28;20213;-80
2021/12/29 01:44:26;;;;;;;16.55;9.88;;;9.40;99.90;;;9.38;100.00;99456.63;5027446;28;20234;-80
2021/12/29 01:46:59;;;;;;;11.32;2.17;;;9.40;99.90;;;9.28;100.00;99456.66;5031823;28;20217;-81
2021/12/29 01:49:27;;;;;;;12.48;2.42;;;;;;;9.27;100.00;99465.44;5031839;28;20202;-82
2021/12/29 01:52:11;;;;;;;17.90;3.15;;;;;;;9.27;100.00;99460.16;5014115;28;20207;-81
2021/12/29 01:54:40;;;;;;;15.57;9.02;;;;;;;9.21;100.00;99462.81;4997047;28;20217;-81
2021/12/29 01:57:10;;;;;;;14.65;11.18;;;9.30;99.90;;;9.16;100.00;99454.03;5015228;28;20681;-83
2021/12/29 01:59:39;;;;;;;18.52;6.25;;;;;;;9.17;100.00;99454.91;5030261;28;20206;-82
2021/12/29 02:02:08;;;;;;;18.13;7.05;;;11.10;99.90;;;9.23;100.00;99466.31;4999820;28;20222;-82
2021/12/29 02:04:37;;;;;;;15.80;6.43;;;;;;;9.22;100.00;99467.22;5000826;28;20199;-82
2021/12/29 02:07:05;;;;;;;190.20;177.25;;;;;;;9.23;100.00;99486.56;4997286;28;20211;-82
2021/12/29 02:09:33;;;;;;;9.90;6.85;;;;;;;9.24;100.00;99483.91;4999213;28;20461;-83
2021/12/29 02:12:03;;;;;;;12.75;6.93;;;9.30;99.90;;;9.29;100.00;99482.16;5030438;28;20218;-82
2021/12/29 02:14:33;;;;;;;150.73;139.90;;;9.40;99.90;;;9.35;100.00;99497.09;5013844;28;20209;-82
2021/12/29 02:17:02;;;;;;;328.95;307.85;;;;;;;9.30;100.00;99489.19;5046067;28;20665;-83
2021/12/29 02:19:31;;;;;;;64.50;61.17;;;9.40;99.90;;;9.27;100.00;99485.66;4996897;28;20206;-82
2021/12/29 02:22:12;;;;;;;90.78;85.03;;;;;;;9.28;100.00;99498.84;5008611;28;20214;-82
2021/12/29 02:24:44;;;;;;;264.60;247.90;;;;;;;9.28;100.00;99498.84;5014118;28;20210;-83
2021/12/29 02:27:13;;;;;;;9.30;3.55;;;9.40;99.90;;;9.25;100.00;99500.63;5002941;28;20223;-82
2021/12/29 02:29:42;;;;;;;8.23;6.00;;;9.40;99.90;;;9.27;100.00;99507.66;5033811;28;20230;-82
2021/12/29 02:32:10;;;;;;;84.30;78.47;;;;;;;9.31;100.00;99508.53;5031489;28;20206;-83
2021/12/29 02:34:38;;;;;;;14.93;12.73;;;;;;;9.30;100.00;99512.06;5016656;28;20215;-82
2021/12/29 02:37:07;;;;;;;20.77;9.60;;;;;;;9.19;100.00;99504.16;5011930;28;20665;-82
2021/12/29 02:39:38;;;;;;;13.25;5.47;;;;;;;9.20;100.00;99510.28;5009324;28;20211;-82
2021/12/29 02:42:07;;;;;;;21.77;8.18;;;9.20;99.90;;;9.23;100.00;99515.56;5026167;28;20210;-82
2021/12/29 02:44:40;;;;;;;18.60;7.72;;;9.40;99.90;;;9.28;100.00;99534.91;5042467;28;20222;-82
2021/12/29 02:47:10;;;;;;;16.00;5.57;;;9.40;99.90;;;9.40;100.00;99548.09;4987075;28;20206;-82
2021/12/29 02:49:38;;;;;;;16.83;4.15;;;;;;;9.34;100.00;99532.28;5043538;28;20234;-82
2021/12/29 02:52:08;;;;;;;14.18;4.50;;;9.40;99.90;;;9.34;100.00;99534.91;5045513;28;20206;-81
2021/12/29 02:54:37;;;;;;;22.08;6.53;;;;;;;9.26;100.00;99529.63;5044730;28;20206;-82
2021/12/29 02:57:06;;;;;;;17.98;5.10;;;;;;;9.23;100.00;99527.00;5013681;28;20217;-81
2021/12/29 02:59:34;;;;;;;18.02;5.47;;;;;;;9.32;100.00;99546.34;5013688;28;20214;-82
2021/12/29 03:02:02;;;;;;;13.95;3.55;;;;;;;9.28;100.00;99537.56;5011586;28;20210;-82
2021/12/29 03:04:31;;;;;;;15.98;3.70;;;;;;;9.28;100.00;99542.81;5000452;28;20734;-81
2021/12/29 03:06:59;;;;;;;16.02;3.63;;;;;;;9.30;100.00;99554.25;5022788;28;20219;-83
2021/12/29 03:09:31;;;;;;;14.93;3.30;;;;;;;9.27;100.00;99535.78;5030177;28;20238;-82
2021/12/29 03:11:59;;;;;;;40.88;32.47;;;;;;;9.28;100.00;99538.44;5026859;28;20211;-82
2021/12/29 03:14:27;;;;;;;122.97;115.43;;;;;;;9.31;100.00;99537.56;5044133;28;20239;-81
2021/12/29 03:16:56;;;;;;;65.63;60.92;;;;;;;9.29;100.00;99534.03;5015533;28;20202;-82
2021/12/29 03:19:24;;;;;;;183.07;170.18;;;;;;;9.35;100.00;99534.03;5014697;28;20203;-83
2021/12/29 03:21:52;;;;;;;30.02;9.48;;;;;;;9.34;100.00;99537.56;4998562;28;20243;-82
2021/12/29 03:24:21;;;;;;;72.25;67.10;;;;;;;9.28;100.00;99548.97;5016307;28;20229;-82
2021/12/29 03:26:49;;;;;;;18.15;5.68;;;;;;;9.37;100.00;99544.59;5000776;28;20228;-82
2021/12/29 03:29:17;;;;;;;17.73;5.07;;;;;;;9.36;100.00;99548.09;5029873;28;20245;-82
2021/12/29 03:31:46;;;;;;;297.27;276.88;;;;;;;9.33;100.00;99538.44;5031050;28;20214;-82
2021/12/29 03:34:15;;;;;;;309.00;288.60;;;;;;;9.35;100.00;99552.50;5028566;28;20241;-81
2021/12/29 03:36:43;;;;;;;193.35;181.60;;;;;;;9.27;100.00;99538.44;5031562;28;20293;-81
2021/12/29 03:39:13;;;;;;;126.55;117.60;;;9.40;99.90;;;9.21;100.00;99551.63;4999515;28;20214;-82
2021/12/29 03:41:41;;;;;;;253.57;234.00;;;;;;;9.11;100.00;99557.78;5019967;28;20211;-82
2021/12/29 03:44:09;;;;;;;277.83;260.90;;;;;;;9.07;100.00;99569.16;5004503;28;20248;-82
2021/12/29 03:46:39;;;;;;;228.20;215.10;;;;;;;9.04;100.00;99588.50;5017970;28;20211;-81
2021/12/29 03:49:07;;;;;;;200.00;183.43;;;;;;;9.19;100.00;99595.59;5036777;28;20229;-83
2021/12/29 03:51:35;;;;;;;237.13;214.95;;;;;;;9.08;100.00;99585.00;5007284;28;21001;-83
2021/12/29 03:54:05;;;;;;;264.13;241.63;;;;;;;9.01;100.00;99593.78;5016844;28;20226;-83
2021/12/29 03:56:33;;;;;;;363.92;321.10;;;;;;;9.05;100.00;99589.38;5001356;28;20211;-83
2021/12/29 03:59:02;;;;;;;83.20;77.30;;;;;;;9.03;100.00;99594.66;5007062;28;20218;-83
2021/12/29 04:01:30;;;;;;;43.83;40.22;;;;;;;9.07;100.00;99603.44;5000114;28;20214;-82
2021/12/29 04:03:58;;;;;;;274.73;253.27;;;;;;;8.96;100.00;99593.75;5014511;28;20222;-82
2021/12/29 04:06:26;;;;;;;168.68;157.90;;;;;;;9.03;100.00;99599.94;5015960;28;20215;-82
2021/12/29 04:08:54;;;;;;;73.45;68.50;;;;;;;9.06;100.00;99597.28;5034712;28;20239;-82
2021/12/29 04:11:22;;;;;;;50.00;46.13;;;9.30;99.90;;;8.99;100.00;99604.31;5023086;28;20206;-82
2021/12/29 04:13:51;;;;;;;130.27;122.55;;;;;;;8.93;100.00;99604.31;5040441;28;20238;-83
2021/12/29 04:16:19;;;;;;;101.35;94.60;;;;;;;8.99;100.00;99620.13;5044080;28;20211;-82
2021/12/29 04:21:37;;;;;;;289.00;261.73;;;9.10;99.90;;;9.00;100.00;99615.75;5019214;28;20657;-83
2021/12/29 04:24:06;;;;;;;161.68;148.55;;;;;;;9.02;100.00;99616.63;5003378;28;20231;-82
2021/12/29 04:26:37;;;;;;;171.05;156.85;;;9.10;99.90;;;8.93;100.00;99603.41;5016094;28;20237;-82
2021/12/29 04:29:08;;;;;;;307.70;176.15;;;9.10;99.90;;;8.95;100.00;99628.91;5014287;28;20230;-83
2021/12/29 04:31:37;;;;;;;195.55;179.38;;;;;;;9.03;100.00;99628.06;5017095;28;20249;-83
2021/12/29 04:34:06;;;;;;;225.70;193.98;;;;;;;8.97;100.00;99618.38;5031028;28;20226;-82
2021/12/29 04:36:35;;;;;;;228.25;196.27;;;;;;;9.09;100.00;99633.34;5011655;28;20210;-82
2021/12/29 04:39:05;;;;;;;218.60;196.20;;;9.10;99.90;;;9.02;100.00;99629.81;5017496;28;20206;-83
2021/12/29 04:41:33;;;;;;;224.30;194.50;;;;;;;9.07;100.00;99635.09;5024793;28;20218;-82
2021/12/29 04:44:02;;;;;;;228.15;187.57;;;;;;;9.11;100.00;99636.91;5001454;28;20230;-83
2021/12/29 04:46:38;;;;;;;250.00;192.18;;;;;;;9.15;100.00;99642.19;5000804;28;20583;-82
2021/12/29 04:49:10;;;;;;;277.40;186.45;;;9.20;99.90;;;9.17;100.00;99642.19;5000852;28;20229;-81
2021/12/29 04:51:46;;;;;;;290.48;180.95;;;;;;;9.25;100.00;99645.72;5013587;28;20701;-82
2021/12/29 04:54:15;;;;;;;313.90;181.35;;;;;;;9.24;100.00;99646.59;5031560;28;20233;-82
2021/12/29 04:56:43;;;;;;;324.42;180.98;;;;;;;9.20;100.00;99643.06;5016352;28;20210;-82
2021/12/29 04:59:11;;;;;;;352.33;181.05;;;;;;;9.19;100.00;99643.06;5010421;28;20228;-82
2021/12/29 05:01:39;;;;;;;365.65;181.65;;;;;;;9.20;100.00;99644.84;5011219;28;20286;-82
2021/12/29 05:04:08;;;;;;;341.00;182.77;;;;;;;9.16;100.00;99646.56;5000294;28;20227;-82
2021/12/29 05:09:23;;;;;;;453.38;407.48;;;;;;;9.11;100.00;99647.44;5017465;28;20697;-82
2021/12/29 05:11:51;;;;;;;501.15;452.13;;;;;;;9.04;100.00;99643.88;5013339;28;20207;-82
2021/12/29 05:14:19;;;;;;;387.30;303.70;;;;;;;9.07;100.00;99662.34;5016308;28;20222;-83
2021/12/29 05:16:47;;;;;;;446.38;319.75;;;;;;;9.11;100.00;99658.88;5015672;28;20680;-82
2021/12/29 05:19:15;;;;;;;267.35;167.77;;;;;;;9.09;100.00;99655.31;5015584;28;20214;-82
2021/12/29 05:21:44;;;;;;;305.20;166.30;;;;;;;9.06;100.00;99657.94;5016618;28;20202;-83
2021/12/29 05:24:12;;;;;;;318.27;146.73;;;;;;;9.16;100.00;99653.63;5001450;28;20242;-83
2021/12/29 05:26:40;;;;;;;308.42;152.52;;;;;;;9.17;100.00;99653.63;5017605;28;20226;-82
2021/12/29 05:29:09;;;;;;;311.17;162.80;;;;;;;9.10;100.00;99651.84;5016527;28;20234;-83
2021/12/29 05:31:37;;;;;;;322.67;153.25;;;;;;;9.11;100.00;99658.88;5011140;28;20694;-79
2021/12/29 05:34:06;;;;;;;301.60;161.38;;;;;;;9.12;100.00;99659.75;5020488;28;20728;-82
2021/12/29 05:36:35;;;;;;;326.65;152.88;;;;;;;9.11;100.00;99664.16;5022217;28;20202;-82
2021/12/29 05:39:03;;;;;;;270.25;164.35;;;;;;;9.21;100.00;99683.53;5033037;28;20253;-82
2021/12/29 05:41:31;;;;;;;320.00;151.55;;;;;;;9.29;100.00;99672.09;5034179;28;20210;-82
2021/12/29 05:44:00;;;;;;;289.58;158.77;;;;;;;9.19;100.00;99667.69;5034046;28;20230;-83
2021/12/29 05:46:28;;;;;;;311.30;161.40;;;;;;;9.15;100.00;99655.38;5039333;28;20203;-82
2021/12/29 05:48:57;;;;;;;241.90;176.68;;;;;;;9.17;100.00;99648.34;5053903;28;20203;-82
2021/12/29 05:51:26;;;;;;;335.83;150.95;;;;;;;9.14;100.00;99655.38;5026500;28;20202;-83
2021/12/29 05:53:54;;;;;;;334.63;158.02;;;;;;;9.14;100.00;99661.53;5055611;28;20300;-82
2021/12/29 05:56:22;;;;;;;345.65;154.13;;;;;;;9.17;100.00;99666.81;5044846;28;20210;-82
2021/12/29 05:58:50;;;;;;;359.13;153.88;;;;;;;9.30;100.00;99670.34;5040417;28;20217;-83
2021/12/29 06:01:19;;;;;;;331.05;153.90;;;;;;;9.32;100.00;99659.81;5033973;28;20203;-80
2021/12/29 06:03:47;;;;;;;344.20;150.45;;;;;;;9.39;100.00;99651.91;4994860;28;20227;-81
2021/12/29 06:06:16;;;;;;;343.48;143.15;;;;;;;9.31;100.00;99645.72;5016804;28;20214;-82
2021/12/29 06:08:44;;;;;;;336.77;138.48;;;;;;;9.36;100.00;99658.94;4998582;28;20211;-81
2021/12/29 06:11:12;;;;;;;342.67;139.52;;;;;;;9.27;100.00;99651.88;5042870;28;20504;-83
2021/12/29 06:13:40;;;;;;;332.40;134.60;;;;;;;9.24;100.00;99657.16;4987627;28;20226;-81
2021/12/29 06:16:10;;;;;;;349.27;139.55;;;;;;;9.22;100.00;99658.91;5029216;28;20213;-82
2021/12/29 06:18:40;;;;;;;336.27;138.68;;;;;;;9.20;100.00;99668.56;5017031;28;20214;-82
2021/12/29 06:21:08;;;;;;;340.23;138.75;;;9.40;99.90;;;9.23;100.00;99658.03;5002038;28;20206;-81
2021/12/29 06:23:36;;;;;;;321.23;72.40;;;;;;;9.21;100.00;99670.34;5034576;28;20451;-78
2021/12/29 06:26:04;;;;;;;327.40;80.20;;;9.30;99.90;;;9.03;100.00;99665.84;5012730;28;20211;-77
2021/12/29 06:28:32;;;;;;;292.60;68.67;;;;;;;8.99;100.00;99675.50;5026842;28;20206;-78
2021/12/29 06:31:00;;;;;;;25.38;23.40;;;;;;;9.07;100.00;99696.63;4993408;28;20500;-78
2021/12/29 06:33:29;;;;;;;126.33;60.60;;;;;;;9.05;100.00;99701.03;5029015;28;20251;-80
2021/12/29 06:35:57;;;;;;;66.57;39.15;;;;;;;9.12;100.00;99712.50;5015499;28;20223;-79
2021/12/29 06:38:25;;;;;;;334.92;171.75;;;;;;;9.02;100.00;99706.28;5014342;28;20220;-81
2021/12/29 06:40:53;;;;;;;15.23;4.47;;;;;;;8.95;100.00;99709.78;5031901;28;20217;-80
2021/12/29 06:43:21;;;;;;;98.13;91.97;;;;;;;8.96;100.00;99717.69;5027713;28;20230;-78
2021/12/29 06:45:49;;;;;;;14.60;3.15;;;;;;;9.04;100.00;99716.84;5041604;28;20937;-79
2021/12/29 06:48:18;;;;;;;10.93;2.47;;;;;;;9.03;100.00;99721.25;4994257;28;20214;-79
2021/12/29 06:50:46;;;;;;;9.18;2.15;;;;;;;8.92;100.00;99722.94;5003893;28;20218;-80
2021/12/29 06:53:14;;;;;;;4.00;1.35;;;;;;;8.82;100.00;99732.56;5012413;28;20226;-79
2021/12/29 06:55:43;;;;;;;3.03;1.02;;;;;;;8.91;100.00;99740.53;5028936;28;20211;-79
2021/12/29 06:58:11;;;;;;;4.70;1.17;;;;;;;8.90;100.00;99737.88;5033795;28;20210;-80
2021/12/29 07:00:40;;;;;;;276.57;55.57;;;;;;;8.98;100.00;99739.69;5031134;28;20207;-80
2021/12/29 07:03:08;;;;;;;319.40;62.83;;;;;;;8.90;100.00;99745.78;5000397;28;20234;-79
2021/12/29 07:05:37;;;;;;;290.07;61.67;;;;;;;8.90;100.00;99751.06;5017204;28;20207;-79
2021/12/29 07:08:05;;;;;;;161.97;42.17;;;;;;;8.82;100.00;99750.16;5029430;28;20211;-79
2021/12/29 07:10:33;;;;;;;261.43;108.53;;;;;;;8.72;100.00;99753.59;4997443;28;20231;-79
2021/12/29 07:13:01;;;;;;;276.67;83.83;;;;;;;8.76;100.00;99772.09;5029743;28;20249;-79
2021/12/29 07:15:29;;;;;;;291.70;70.33;;;;;;;8.79;100.00;99776.50;5000388;28;20203;-80
2021/12/29 07:17:57;;;;;;;329.87;231.57;;;;;;;8.86;100.00;99788.84;5032840;28;20211;-80
2021/12/29 07:20:25;;;;;;;297.73;106.53;;;;;;;8.78;100.00;99780.88;5016525;28;20206;-80
2021/12/29 07:22:54;;;;;;;353.90;286.67;;;;;;;8.71;100.00;99775.56;5031369;28;20222;-81
2021/12/29 07:25:22;;;;;;;363.53;303.50;;;;;;;8.74;100.00;99786.13;5040464;28;20213;-80
2021/12/29 07:27:52;;;;;;;281.60;79.57;;;9.20;99.90;;;8.81;100.00;99795.84;5038637;28;20209;-81
2021/12/29 07:30:20;;;;;;;292.37;92.37;;;;;;;8.83;100.00;99792.34;5018708;28;20223;-80
2021/12/29 07:32:49;;;;;;;353.20;200.10;;;8.90;99.90;;;8.78;100.00;99791.44;5029419;28;20230;-79
2021/12/29 07:35:18;;;;;;;377.43;325.87;;;;;;;8.96;100.00;99798.56;5018783;28;20207;-81
2021/12/29 07:37:46;;;;;;;445.60;402.27;;;;;;;8.76;100.00;99773.84;5017519;28;20219;-80
2021/12/29 07:40:14;;;;;;;353.23;275.60;;;8.60;99.90;;;8.81;100.00;99782.66;5041071;28;20214;-80
2021/12/29 07:42:44;;;;;;;359.77;215.63;;;;;;;8.80;100.00;99783.53;5052299;28;20737;-81
2021/12/29 07:45:12;;;;;;;348.97;208.77;;;;;;;8.75;100.00;99794.06;5002639;28;20211;-80
2021/12/29 07:47:47;;;;;;;367.30;239.60;;;8.90;99.90;;;8.81;100.00;99799.34;5002156;28;20202;-80
2021/12/29 07:50:18;;;;;;;351.13;277.57;;;8.90;99.90;;;8.82;100.00;99808.16;5006395;28;20610;-80
2021/12/29 07:53:01;;;;;;;334.10;175.50;;;;;;;8.84;100.00;99804.66;5034128;28;20245;-80
2021/12/29 07:55:30;;;;;;;375.33;327.87;;;;;;;8.90;100.00;99824.91;5045382;28;20217;-81
2021/12/29 07:57:58;;;;;;;374.03;221.00;;;9.00;99.90;;;8.97;100.00;99822.31;5035838;28;20209;-80
2021/12/29 08:00:27;;;;;;;384.38;223.85;;;9.00;99.90;;;9.04;100.00;99830.25;5036063;28;20214;-80
2021/12/29 08:02:55;;;;;;;368.20;227.57;;;;;;;9.01;100.00;99832.88;5037549;28;20222;-79
2021/12/29 08:05:24;;;;;;;357.77;206.03;;;;;;;9.01;100.00;99840.78;5036315;28;20221;-81
2021/12/29 08:07:52;;;;;;;365.50;243.30;;;;;;;9.02;100.00;99845.19;5006869;28;20214;-79
2021/12/29 08:10:21;;;;;;;493.00;447.77;;;;;;;9.03;100.00;99844.31;5005420;28;20230;-80
2021/12/29 08:12:49;;;;;;;299.90;101.20;;;;;;;9.04;100.00;99846.06;5036468;28;20245;-81
2021/12/29 08:15:17;;;;;;;290.50;93.40;;;9.10;99.90;;;9.00;100.00;99853.09;5038338;28;20206;-81
2021/12/29 08:17:50;;;;;;;286.60;87.53;;;;;;;9.02;100.00;99853.09;5023900;28;20213;-81
2021/12/29 08:20:18;;;;;;;287.00;87.20;;;;;;;9.03;100.00;99855.75;5023922;28;20664;-81
2021/12/29 08:22:47;;;;;;;289.73;77.63;;;;;;;9.01;100.00;99846.06;5034590;28;20234;-80
2021/12/29 08:25:15;;;;;;;296.70;78.20;;;;;;;9.02;100.00;99848.72;5011941;28;20281;-81
2021/12/29 08:27:43;;;;;;;290.47;76.20;;;;;;;8.94;100.00;99839.88;5019758;28;20222;-80
2021/12/29 08:30:12;;;;;;;288.13;76.23;;;9.00;99.90;;;8.88;100.00;99847.75;5022982;28;20213;-81
2021/12/29 08:32:40;;;;;;;291.70;82.43;;;;;;;8.87;100.00;99838.06;5018514;28;20225;-82
2021/12/29 08:35:08;;;;;;;298.00;89.40;;;9.00;99.90;;;8.88;100.00;99845.09;5005342;28;20204;-81
2021/12/29 08:37:37;;;;;;;288.27;93.90;;;;;;;8.89;100.00;99855.66;5005492;28;20207;-81
2021/12/29 08:40:07;;;;;;;296.57;99.43;;;9.00;99.90;;;8.89;100.00;99844.22;5022463;28;20222;-80
2021/12/29 08:42:38;;;;;;;300.83;104.40;;;9.10;99.90;;;8.90;100.00;99838.09;5046688;28;20232;-80
2021/12/29 08:45:10;;;;;;;296.00;104.23;;;8.90;99.90;;;8.90;100.00;99841.59;5024502;28;20221;-81
2021/12/29 08:47:39;;;;;;;317.73;110.83;;;;;;;8.88;100.00;99845.09;5034614;28;20218;-81
2021/12/29 08:50:13;;;;;;;324.60;120.30;;;8.90;99.90;;;9.04;100.00;99854.88;5045407;28;20213;-83
2021/12/29 08:52:42;;;;;;;353.20;212.23;;;;;;;9.24;100.00;99840.06;5025837;28;20240;-83
2021/12/29 08:55:13;;;;;;;537.23;490.77;;;9.20;99.90;;;9.23;100.00;99833.03;5056470;28;20210;-82
2021/12/29 08:57:42;;;;;;;336.13;164.80;;;;;;;9.18;100.00;99825.97;5018777;28;20207;-82
2021/12/29 09:00:14;;;;;;;345.57;185.70;;;9.10;99.90;;;9.23;100.00;99830.38;5035474;28;20222;-82
2021/12/29 09:02:43;;;;;;;356.53;232.47;;;9.30;99.90;;;9.22;100.00;99830.38;5051357;28;20222;-82
2021/12/29 09:05:12;;;;;;;344.17;205.17;;;9.30;99.90;;;9.22;100.00;99825.09;5043228;28;20198;-81
2021/12/29 09:07:41;;;;;;;346.40;200.57;;;;;;;9.23;100.00;99840.06;5027433;28;20220;-82
2021/12/29 09:10:11;;;;;;;517.63;471.83;;;9.60;99.90;;;9.25;100.00;99847.09;4967814;28;20303;-81
2021/12/29 09:12:39;;;;;;;384.67;336.53;;;;;;;9.41;100.00;99852.44;5009959;28;20243;-81
2021/12/29 09:15:08;;;;;;;435.40;391.60;;;;;;;9.41;100.00;99842.78;5025338;28;20204;-81
2021/12/29 09:17:36;;;;;;;536.10;490.40;;;;;;;9.35;100.00;99850.66;4994133;28;20208;-81
2021/12/29 09:20:06;;;;;;;426.90;384.43;;;9.50;99.90;;;9.49;100.00;99861.28;4980778;28;20220;-81
2021/12/29 09:22:34;;;;;;;466.27;421.63;;;;;;;9.54;100.00;99862.19;5029962;28;20227;-80
2021/12/29 09:25:02;;;;;;;374.67;318.30;;;9.50;99.90;;;9.49;100.00;99859.53;5009050;28;20203;-80
2021/12/29 09:27:30;;;;;;;332.00;185.27;;;;;;;9.48;100.00;99878.88;4999954;28;20298;-80
2021/12/29 09:29:58;;;;;;;311.20;117.50;;;;;;;9.57;100.00;99875.41;5015584;28;20206;-81
2021/12/29 09:32:31;;;;;;;319.30;140.13;;;;;;;9.60;100.00;99885.97;5000516;28;20747;-81
2021/12/29 09:35:00;;;;;;;296.27;108.77;;;;;;;9.60;100.00;99885.97;5013226;28;20579;-81
2021/12/29 09:37:30;;;;;;;291.87;102.23;;;;;;;9.63;100.00;99896.53;4995564;28;20224;-82
2021/12/29 09:39:58;;;;;;;287.33;94.37;;;9.70;99.90;;;9.66;100.00;99900.94;5013670;28;20207;-81
2021/12/29 09:42:27;;;;;;;292.50;98.67;;;;;;;9.67;100.00;99900.94;4996336;28;20211;-80
2021/12/29 09:44:56;;;;;;;315.10;102.53;;;9.70;99.90;;;9.70;100.00;99902.72;5007342;28;20208;-81
2021/12/29 09:47:24;;;;;;;290.67;91.93;;;;;;;9.76;100.00;99916.84;5001284;28;20211;-81
2021/12/29 09:49:52;;;;;;;300.60;93.43;;;;;;;9.84;100.00;99912.47;5012345;28;20212;-80
2021/12/29 09:52:21;;;;;;;305.43;99.43;;;;;;;9.87;100.00;99919.50;5012141;28;20225;-80
2021/12/29 09:54:50;;;;;;;301.17;100.47;;;;;;;9.87;100.00;99915.13;4994780;28;20223;-81
2021/12/29 09:57:18;;;;;;;303.57;100.07;;;;;;;9.85;100.00;99894.84;5011526;28;20216;-79
2021/12/29 09:59:46;;;;;;;300.17;103.17;;;10.20;99.90;;;9.83;100.00;99897.50;5012831;28;20215;-80
2021/12/29 10:02:14;;;;;;;311.03;108.90;;;;;;;9.82;100.00;99903.66;4993802;28;20227;-79
2021/12/29 10:04:46;;;;;;;296.07;110.27;;;10.00;99.90;;;9.85;100.00;99921.25;5010565;28;20207;-81
2021/12/29 10:07:20;;;;;;;301.07;109.17;;;10.00;99.90;;;9.81;100.00;99909.81;5010112;28;20207;-80
2021/12/29 10:09:48;;;;;;;296.57;108.10;;;;;;;9.82;100.00;99906.28;5011907;28;20206;-79
2021/12/29 10:12:20;;;;;;;298.97;110.63;;;;;;;9.80;100.00;99910.69;5022444;28;20234;-80
2021/12/29 10:14:56;;;;;;;297.93;113.60;;;10.10;99.90;;;9.77;100.00;99913.31;4980728;28;20203;-80
2021/12/29 10:17:29;;;;;;;294.13;111.70;;;10.00;99.90;;;9.77;100.00;99915.97;4993694;28;20725;-80
2021/12/29 10:20:08;;;;;;;299.17;113.37;;;10.00;99.90;;;9.76;100.00;99911.56;5010323;28;20215;-80
2021/12/29 10:22:37;;;;;;;307.10;130.97;;;9.90;99.90;;;9.77;100.00;99910.69;5022411;28;20230;-79
2021/12/29 10:25:16;;;;;;;291.57;109.10;;;9.90;99.90;;;9.74;100.00;99910.66;4991643;28;20204;-80
2021/12/29 10:27:44;;;;;;;294.30;109.50;;;;;;;9.76;100.00;99905.38;5011378;28;20203;-80
2021/12/29 10:30:26;;;;;;;296.23;104.80;;;9.80;99.90;;;9.76;100.00;99908.03;5011396;28;20211;-80
2021/12/29 10:32:57;;;;;;;300.00;95.70;;;10.00;99.90;;;9.73;100.00;99913.28;5002689;28;20229;-80
2021/12/29 10:35:32;;;;;;;301.43;87.00;;;9.90;99.90;;;9.61;100.00;99922.06;5020436;28;20214;-79
2021/12/29 10:38:27;;;;;;;302.53;86.43;;;9.90;99.90;;;9.58;100.00;99943.16;5002212;28;20206;-80
2021/12/29 10:41:03;;;;;;;297.90;75.27;;;9.90;99.90;;;9.56;100.00;99939.63;4984051;28;20214;-81
2021/12/29 10:44:03;;;;;;;299.90;73.60;;;9.80;99.90;;;9.54;100.00;99951.94;5010761;28;20219;-80
2021/12/29 10:46:35;;;;;;;291.73;74.07;;;9.80;99.90;;;9.53;100.00;99956.31;5014618;28;20219;-80
2021/12/29 10:49:07;;;;;;;290.60;73.23;;;9.80;99.90;;;9.51;100.00;99960.72;4999042;28;20215;-81
2021/12/29 10:51:43;;;;;;;295.23;75.23;;;9.80;99.90;;;9.47;100.00;99956.28;4998497;28;20208;-80
2021/12/29 10:54:24;;;;;;;287.40;73.83;;;9.70;99.90;;;9.41;100.00;99945.69;5016091;28;20234;-80
2021/12/29 10:57:19;;;;;;;290.33;76.43;;;9.70;99.90;;;9.41;100.00;99950.97;5012314;28;20203;-79
2021/12/29 10:59:55;;;;;;;294.47;77.07;;;9.70;99.90;;;9.37;100.00;99945.66;5005273;28;20219;-79
2021/12/29 11:02:28;;;;;;;303.60;83.73;;;9.70;99.90;;;9.35;100.00;99952.69;5025053;28;20199;-81
2021/12/29 11:04:59;;;;;;;302.23;81.93;;;9.60;99.90;;;9.27;100.00;99950.91;4999771;28;20199;-81
2021/12/29 11:07:31;;;;;;;303.67;84.43;;;9.60;99.90;;;9.18;100.00;99957.88;4997938;28;20204;-83